createdAt,value
2022-10-11T00:01:26.300Z,9.48
2022-10-11T00:03:52.686Z,9.46
2022-10-11T00:06:19.053Z,9.44
2022-10-11T00:08:45.420Z,9.41
2022-10-11T00:11:11.797Z,9.40
2022-10-11T00:13:38.199Z,9.39
2022-10-11T00:16:12.182Z,9.40
2022-10-11T00:18:39.330Z,9.40
2022-10-11T00:21:08.871Z,9.41
2022-10-11T00:23:35.962Z,9.38
2022-10-11T00:26:04.899Z,9.36
2022-10-11T00:28:32.362Z,9.32
2022-10-11T00:30:58.927Z,9.31
2022-10-11T00:33:25.839Z,9.30
2022-10-11T00:35:52.223Z,9.31
2022-10-11T00:38:18.920Z,9.30
2022-10-11T00:40:45.588Z,9.29
2022-10-11T00:43:17.251Z,9.27
2022-10-11T00:46:23.828Z,9.24
2022-10-11T00:49:07.143Z,9.21
2022-10-11T00:51:41.105Z,9.22
2022-10-11T00:54:13.139Z,9.22
2022-10-11T00:56:40.703Z,9.23
2022-10-11T00:59:13.816Z,9.24
2022-10-11T01:01:40.810Z,9.20
2022-10-11T01:04:07.393Z,9.17
2022-10-11T01:06:34.899Z,9.12
2022-10-11T01:09:01.579Z,9.11
2022-10-11T01:11:29.821Z,9.09
2022-10-11T01:14:39.397Z,9.09
2022-10-11T01:17:38.134Z,9.12
2022-10-11T01:20:22.204Z,9.14
2022-10-11T01:22:57.701Z,9.11
2022-10-11T01:25:36.158Z,9.08
2022-10-11T01:28:28.657Z,9.05
2022-10-11T01:31:03.868Z,9.02
2022-10-11T01:33:37.878Z,9.03
2022-10-11T01:36:30.739Z,9.02
2022-10-11T01:39:09.650Z,9.04
2022-10-11T01:41:46.209Z,9.03
2022-10-11T01:44:13.762Z,9.02
2022-10-11T01:46:40.868Z,9.01
2022-10-11T01:49:07.913Z,8.99
2022-10-11T01:51:42.016Z,8.99
2022-10-11T01:54:56.548Z,8.95
2022-10-11T01:57:53.846Z,8.95
2022-10-11T02:00:23.908Z,8.94
2022-10-11T02:03:19.258Z,8.90
2022-10-11T02:05:56.488Z,8.88
2022-10-11T02:08:50.043Z,8.88
2022-10-11T02:11:31.773Z,8.87
2022-10-11T02:14:12.180Z,8.85
2022-10-11T02:16:54.229Z,8.84
2022-10-11T02:19:26.349Z,8.80
2022-10-11T02:21:56.654Z,8.79
2022-10-11T02:24:30.266Z,8.78
2022-10-11T02:26:59.392Z,8.77
2022-10-11T02:29:29.324Z,8.76
2022-10-11T02:31:58.174Z,8.75
2022-10-11T02:34:31.978Z,8.73
2022-10-11T02:37:12.162Z,8.73
2022-10-11T02:39:50.206Z,8.71
2022-10-11T02:42:22.956Z,8.71
2022-10-11T02:45:00.734Z,8.72
2022-10-11T02:47:29.633Z,8.70
2022-10-11T02:49:56.040Z,8.68
2022-10-11T02:52:22.421Z,8.68
2022-10-11T02:54:48.785Z,8.67
2022-10-11T02:57:15.171Z,8.67
2022-10-11T02:59:41.511Z,8.65
2022-10-11T03:02:08.002Z,8.64
2022-10-11T03:04:34.409Z,8.63
2022-10-11T03:07:00.792Z,8.64
2022-10-11T03:09:27.174Z,8.67
2022-10-11T03:11:53.514Z,8.69
2022-10-11T03:14:19.905Z,8.66
2022-10-11T03:16:46.299Z,8.64
2022-10-11T03:19:16.924Z,8.60
2022-10-11T03:21:45.449Z,8.57
2022-10-11T03:24:11.826Z,8.55
2022-10-11T03:26:38.217Z,8.52
2022-10-11T03:29:04.580Z,8.52
2022-10-11T03:31:30.939Z,8.51
2022-10-11T03:33:57.295Z,8.48
2022-10-11T03:36:23.725Z,8.46
2022-10-11T03:38:50.091Z,8.45
2022-10-11T03:41:16.434Z,8.44
2022-10-11T03:43:42.814Z,8.44
2022-10-11T03:46:09.396Z,8.44
2022-10-11T03:48:35.896Z,8.46
2022-10-11T03:51:02.659Z,8.44
2022-10-11T03:53:29.495Z,8.46
2022-10-11T03:55:56.921Z,8.44
2022-10-11T03:58:23.652Z,8.44
2022-10-11T04:00:51.846Z,8.42
2022-10-11T04:03:18.227Z,8.41
2022-10-11T04:05:44.992Z,8.39
2022-10-11T04:08:12.445Z,8.39
2022-10-11T04:10:39.939Z,8.38
2022-10-11T04:13:06.606Z,8.40
2022-10-11T04:15:33.025Z,8.41
2022-10-11T04:17:59.398Z,8.42
2022-10-11T04:20:25.766Z,8.44
2022-10-11T04:22:52.117Z,8.41
2022-10-11T04:25:18.464Z,8.40
2022-10-11T04:27:44.835Z,8.39
2022-10-11T04:30:11.916Z,8.39
2022-10-11T04:32:38.261Z,8.39
2022-10-11T04:35:05.004Z,8.36
2022-10-11T04:37:31.353Z,8.36
2022-10-11T04:39:57.698Z,8.36
2022-10-11T04:42:24.089Z,8.34
2022-10-11T04:44:50.465Z,8.36
2022-10-11T04:47:16.829Z,8.36
2022-10-11T04:49:43.202Z,8.34
2022-10-11T04:52:09.574Z,8.35
2022-10-11T04:54:36.566Z,8.36
2022-10-11T04:57:03.076Z,8.36
2022-10-11T04:59:29.510Z,8.34
2022-10-11T05:01:56.038Z,8.32
2022-10-11T05:04:22.414Z,8.31
2022-10-11T05:06:48.813Z,8.32
2022-10-11T05:09:15.257Z,8.31
2022-10-11T05:11:41.645Z,8.29
2022-10-11T05:14:07.983Z,8.29
2022-10-11T05:16:35.489Z,8.28
2022-10-11T05:19:01.881Z,8.26
2022-10-11T05:21:29.914Z,8.25
2022-10-11T05:23:57.430Z,8.24
2022-10-11T05:26:27.362Z,8.24
2022-10-11T05:28:54.969Z,8.22
2022-10-11T05:31:22.005Z,8.18
2022-10-11T05:33:48.616Z,8.18
2022-10-11T05:36:15.210Z,8.18
2022-10-11T05:38:41.589Z,8.20
2022-10-11T05:41:11.785Z,8.18
2022-10-11T05:43:38.166Z,8.19
2022-10-11T05:46:05.751Z,8.19
2022-10-11T05:48:32.681Z,8.22
2022-10-11T05:51:05.030Z,8.24
2022-10-11T05:53:32.258Z,8.28
2022-10-11T05:55:59.627Z,8.26
2022-10-11T05:58:26.386Z,8.26
2022-10-11T06:00:53.260Z,8.26
2022-10-11T06:03:21.017Z,8.27
2022-10-11T06:05:47.565Z,8.29
2022-10-11T06:08:14.758Z,8.33
2022-10-11T06:10:41.438Z,8.39
2022-10-11T06:13:08.894Z,8.41
2022-10-11T06:15:38.628Z,8.46
2022-10-11T06:18:04.994Z,8.48
2022-10-11T06:20:31.343Z,8.49
2022-10-11T06:22:58.783Z,8.52
2022-10-11T06:25:25.178Z,8.53
2022-10-11T06:27:51.561Z,8.56
2022-10-11T06:30:17.995Z,8.61
2022-10-11T06:32:44.466Z,8.67
2022-10-11T06:35:10.945Z,8.76
2022-10-11T06:37:37.326Z,8.80
2022-10-11T06:40:04.079Z,8.84
2022-10-11T06:42:30.427Z,8.85
2022-10-11T06:44:56.805Z,8.88
2022-10-11T06:47:23.166Z,9.07
2022-10-11T06:49:49.601Z,9.07
2022-10-11T06:52:15.965Z,9.03
2022-10-11T06:54:44.929Z,9.00
2022-10-11T06:57:11.931Z,9.00
2022-10-11T06:59:38.287Z,9.02
2022-10-11T07:02:04.701Z,9.05
2022-10-11T07:04:31.145Z,9.05
2022-10-11T07:06:57.540Z,9.06
2022-10-11T07:09:23.944Z,9.07
2022-10-11T07:11:50.287Z,9.11
2022-10-11T07:14:16.625Z,9.13
2022-10-11T07:16:43.020Z,9.15
2022-10-11T07:19:10.117Z,9.15
2022-10-11T07:21:36.822Z,9.15
2022-10-11T07:24:03.812Z,9.18
2022-10-11T07:26:36.809Z,9.20
2022-10-11T07:29:05.415Z,9.22
2022-10-11T07:31:31.870Z,9.25
2022-10-11T07:33:58.232Z,9.27
2022-10-11T07:36:25.670Z,9.28
2022-10-11T07:38:52.066Z,9.28
2022-10-11T07:41:18.833Z,9.26
2022-10-11T07:43:47.632Z,9.29
2022-10-11T07:46:14.190Z,9.33
2022-10-11T07:48:41.415Z,9.38
2022-10-11T07:51:20.340Z,9.44
2022-10-11T07:53:49.825Z,9.49
2022-10-11T07:56:19.422Z,9.56
2022-10-11T07:58:53.163Z,9.64
2022-10-11T08:01:20.578Z,9.69
2022-10-11T08:03:47.502Z,9.74
2022-10-11T08:06:16.412Z,9.79
2022-10-11T08:08:42.780Z,9.86
2022-10-11T08:11:09.546Z,9.94
2022-10-11T08:13:35.918Z,9.99
2022-10-11T08:16:10.115Z,10.04
2022-10-11T08:18:36.479Z,10.09
2022-10-11T08:21:11.158Z,10.15
2022-10-11T08:23:37.978Z,10.20
2022-10-11T08:26:04.799Z,10.22
2022-10-11T08:28:32.080Z,10.24
2022-10-11T08:30:58.666Z,10.26
2022-10-11T08:33:26.433Z,10.27
2022-10-11T08:35:54.044Z,10.30
2022-10-11T08:38:21.647Z,10.30
2022-10-11T08:40:56.306Z,10.34
2022-10-11T08:43:58.102Z,10.38
2022-10-11T08:46:33.329Z,10.42
2022-10-11T08:49:01.446Z,10.45
2022-10-11T08:51:32.436Z,10.50
2022-10-11T08:54:07.738Z,10.54
2022-10-11T08:56:39.761Z,10.56
2022-10-11T08:59:11.947Z,10.57
2022-10-11T09:01:44.839Z,10.57
2022-10-11T09:04:15.828Z,10.60
2022-10-11T09:06:59.244Z,10.60
2022-10-11T09:10:06.273Z,10.63
2022-10-11T09:12:57.585Z,10.63
2022-10-11T09:15:40.292Z,10.66
2022-10-11T09:18:18.530Z,10.70
2022-10-11T09:20:52.967Z,10.74
2022-10-11T09:24:04.241Z,10.81
2022-10-11T09:26:55.240Z,10.88
2022-10-11T09:29:55.517Z,11.00
2022-10-11T09:32:24.281Z,11.08
2022-10-11T09:34:59.853Z,11.24
2022-10-11T09:37:58.413Z,11.31
2022-10-11T09:40:44.505Z,11.37
2022-10-11T09:43:11.254Z,11.42
2022-10-11T09:45:38.685Z,11.43
2022-10-11T09:48:07.170Z,11.48
2022-10-11T09:50:34.338Z,11.48
2022-10-11T09:53:04.819Z,11.49
2022-10-11T09:55:43.261Z,11.53
2022-10-11T09:58:30.288Z,11.53
2022-10-11T10:01:03.928Z,11.59
2022-10-11T10:03:37.016Z,11.67
2022-10-11T10:06:17.558Z,11.69
2022-10-11T10:08:46.778Z,11.73
2022-10-11T10:11:14.720Z,11.77
2022-10-11T10:13:51.247Z,11.80
2022-10-11T10:16:27.800Z,11.89
2022-10-11T10:18:54.097Z,11.99
2022-10-11T10:21:27.704Z,12.01
2022-10-11T10:23:55.686Z,12.04
2022-10-11T10:26:26.543Z,12.07
2022-10-11T10:29:01.733Z,12.12
2022-10-11T10:32:15.371Z,12.20
2022-10-11T10:34:38.171Z,12.28
2022-10-11T10:37:13.422Z,12.33
2022-10-11T10:39:50.019Z,12.39
2022-10-11T10:42:19.580Z,12.46
2022-10-11T10:44:56.554Z,12.59
2022-10-11T10:47:38.697Z,12.66
2022-10-11T10:50:15.119Z,12.68
2022-10-11T10:53:24.395Z,12.65
2022-10-11T10:56:08.561Z,12.63
2022-10-11T10:58:59.876Z,12.62
2022-10-11T11:01:29.055Z,12.73
2022-10-11T11:04:22.179Z,12.77
2022-10-11T11:07:04.707Z,12.80
2022-10-11T11:09:51.740Z,12.92
2022-10-11T11:12:35.103Z,12.95
2022-10-11T11:15:19.852Z,13.06
2022-10-11T11:18:16.720Z,13.17
2022-10-11T11:21:01.761Z,13.28
2022-10-11T11:23:45.389Z,13.32
2022-10-11T11:26:33.138Z,13.32
2022-10-11T11:29:07.925Z,13.34
2022-10-11T11:31:40.417Z,13.43
2022-10-11T11:34:23.955Z,13.53
2022-10-11T11:37:01.656Z,13.58
2022-10-11T11:39:45.183Z,13.59
2022-10-11T11:42:29.917Z,13.57
2022-10-11T11:44:59.454Z,13.78
2022-10-11T11:47:59.749Z,13.87
2022-10-11T11:50:27.931Z,13.90
2022-10-11T11:53:00.643Z,13.94
2022-10-11T11:55:33.322Z,13.90
2022-10-11T11:58:12.247Z,14.03
2022-10-11T12:01:02.496Z,14.17
2022-10-11T12:03:41.791Z,14.13
2022-10-11T12:06:17.365Z,14.07
2022-10-11T12:08:48.307Z,14.00
2022-10-11T12:11:26.178Z,13.91
2022-10-11T12:13:54.704Z,13.88
2022-10-11T12:16:22.233Z,13.82
2022-10-11T12:18:55.974Z,13.79
2022-10-11T12:21:35.617Z,13.81
2022-10-11T12:24:20.181Z,13.72
2022-10-11T12:26:48.872Z,13.71
2022-10-11T12:29:45.417Z,13.71
2022-10-11T12:32:36.090Z,13.72
2022-10-11T12:35:34.745Z,13.76
2022-10-11T12:38:06.381Z,13.75
2022-10-11T12:40:42.441Z,13.72
2022-10-11T12:43:26.053Z,13.69
2022-10-11T12:45:52.574Z,13.68
2022-10-11T12:48:38.509Z,13.68
2022-10-11T12:51:36.153Z,13.71
2022-10-11T12:54:31.000Z,13.69
2022-10-11T12:57:31.919Z,13.70
2022-10-11T13:00:18.839Z,13.67
2022-10-11T13:02:46.202Z,13.68
2022-10-11T13:05:22.053Z,13.67
2022-10-11T13:07:49.558Z,13.68
2022-10-11T13:10:24.117Z,13.67
2022-10-11T13:12:52.863Z,13.67
2022-10-11T13:15:21.969Z,13.67
2022-10-11T13:17:50.215Z,13.64
2022-10-11T13:20:17.072Z,13.62
2022-10-11T13:22:49.643Z,13.59
2022-10-11T13:25:20.347Z,13.57
2022-10-11T13:27:49.287Z,13.54
2022-10-11T13:30:23.903Z,13.53
2022-10-11T13:32:51.525Z,13.53
2022-10-11T13:35:32.770Z,13.52
2022-10-11T13:37:59.781Z,13.51
2022-10-11T13:40:27.243Z,13.50
2022-10-11T13:42:55.503Z,13.51
2022-10-11T13:45:24.811Z,13.51
2022-10-11T13:47:55.666Z,13.59
2022-10-11T13:50:23.731Z,13.70
2022-10-11T13:52:52.689Z,13.81
2022-10-11T13:55:34.342Z,13.88
2022-10-11T13:58:09.314Z,13.92
2022-10-11T14:00:39.731Z,13.98
2022-10-11T14:03:12.146Z,14.06
2022-10-11T14:05:51.582Z,14.13
2022-10-11T14:08:55.130Z,14.20
2022-10-11T14:11:47.602Z,14.22
2022-10-11T14:14:30.546Z,14.21
2022-10-11T14:17:10.212Z,14.21
2022-10-11T14:19:37.196Z,14.25
2022-10-11T14:22:05.577Z,14.27
2022-10-11T14:24:31.935Z,14.27
2022-10-11T14:26:59.009Z,14.20
2022-10-11T14:29:31.371Z,14.21
2022-10-11T14:32:06.900Z,14.21
2022-10-11T14:34:34.473Z,14.21
2022-10-11T14:37:00.947Z,14.22
2022-10-11T14:39:30.638Z,14.23
2022-10-11T14:41:57.122Z,14.20
2022-10-11T14:44:24.010Z,14.20
2022-10-11T14:46:54.307Z,14.20
2022-10-11T14:49:25.065Z,14.18
2022-10-11T14:51:54.030Z,14.16
2022-10-11T14:54:23.466Z,14.17
2022-10-11T14:56:51.312Z,14.16
2022-10-11T14:59:20.384Z,14.14
2022-10-11T15:01:51.581Z,14.09
2022-10-11T15:04:19.993Z,14.08
2022-10-11T15:06:46.393Z,14.09
2022-10-11T15:09:12.822Z,14.08
2022-10-11T15:11:39.626Z,14.09
2022-10-11T15:14:06.569Z,14.07
2022-10-11T15:16:34.158Z,14.08
2022-10-11T15:19:00.700Z,14.07
2022-10-11T15:21:29.462Z,14.07
2022-10-11T15:23:56.216Z,14.05
2022-10-11T15:26:25.827Z,14.05
2022-10-11T15:28:54.665Z,14.03
2022-10-11T15:31:21.862Z,14.02
2022-10-11T15:33:49.020Z,14.01
2022-10-11T15:36:20.827Z,14.01
2022-10-11T15:38:48.496Z,13.99
2022-10-11T15:41:19.790Z,13.97
2022-10-11T15:43:48.056Z,13.96
2022-10-11T15:46:17.987Z,13.93
2022-10-11T15:48:45.493Z,13.90
2022-10-11T15:51:11.940Z,13.88
2022-10-11T15:53:38.579Z,13.87
2022-10-11T15:56:11.910Z,13.85
2022-10-11T15:58:40.722Z,13.83
2022-10-11T16:01:09.911Z,13.81
2022-10-11T16:03:36.513Z,13.79
2022-10-11T16:06:05.498Z,13.79
2022-10-11T16:08:33.649Z,13.77
2022-10-11T16:11:00.447Z,13.74
2022-10-11T16:13:26.978Z,13.74
2022-10-11T16:15:53.946Z,13.70
2022-10-11T16:18:22.065Z,13.70
2022-10-11T16:20:51.293Z,13.65
2022-10-11T16:23:20.063Z,13.65
2022-10-11T16:25:47.760Z,13.64
2022-10-11T16:28:14.256Z,13.61
2022-10-11T16:30:43.782Z,13.58
2022-10-11T16:33:10.245Z,13.55
2022-10-11T16:35:41.326Z,13.52
2022-10-11T16:38:07.712Z,13.48
2022-10-11T16:40:35.871Z,13.43
2022-10-11T16:43:07.375Z,13.38
2022-10-11T16:45:34.259Z,13.36
2022-10-11T16:48:00.659Z,13.32
2022-10-11T16:50:27.276Z,13.27
2022-10-11T16:52:55.363Z,13.23
2022-10-11T16:55:22.796Z,13.18
2022-10-11T16:57:49.165Z,13.14
2022-10-11T17:00:15.957Z,13.09
2022-10-11T17:02:42.371Z,13.03
2022-10-11T17:05:08.973Z,12.99
2022-10-11T17:07:35.510Z,12.94
2022-10-11T17:10:01.904Z,12.90
2022-10-11T17:12:28.285Z,12.87
2022-10-11T17:14:54.839Z,12.82
2022-10-11T17:17:21.213Z,12.79
2022-10-11T17:19:47.892Z,12.75
2022-10-11T17:22:17.568Z,12.73
2022-10-11T17:24:44.570Z,12.70
2022-10-11T17:27:11.093Z,12.66
2022-10-11T17:29:37.935Z,12.62
2022-10-11T17:32:04.501Z,12.58
2022-10-11T17:34:31.070Z,12.55
2022-10-11T17:36:57.448Z,12.50
2022-10-11T17:39:24.071Z,12.48
2022-10-11T17:41:50.660Z,12.44
2022-10-11T17:44:17.958Z,12.42
2022-10-11T17:46:44.649Z,12.38
2022-10-11T17:49:12.281Z,12.35
2022-10-11T17:51:39.903Z,12.32
2022-10-11T17:54:06.324Z,12.29
2022-10-11T17:56:37.629Z,12.26
2022-10-11T17:59:05.102Z,12.24
2022-10-11T18:01:31.769Z,12.73
2022-10-11T18:04:00.333Z,13.09
2022-10-11T18:06:29.216Z,13.20
2022-10-11T18:08:57.156Z,13.05
2022-10-11T18:11:24.044Z,12.87
2022-10-11T18:13:52.661Z,12.69
2022-10-11T18:16:22.038Z,12.53
2022-10-11T18:18:49.014Z,12.41
2022-10-11T18:21:16.260Z,12.32
2022-10-11T18:23:42.679Z,12.24
2022-10-11T18:26:17.638Z,12.17
2022-10-11T18:28:45.204Z,12.10
2022-10-11T18:31:18.519Z,12.06
2022-10-11T18:33:45.977Z,12.01
2022-10-11T18:36:14.319Z,11.97
2022-10-11T18:38:46.039Z,11.93
2022-10-11T18:41:14.990Z,11.88
2022-10-11T18:43:41.577Z,11.85
2022-10-11T18:46:14.982Z,11.81
2022-10-11T18:48:46.348Z,11.78
2022-10-11T18:51:16.396Z,11.75
2022-10-11T18:53:42.799Z,11.72
2022-10-11T18:56:10.702Z,11.69
2022-10-11T18:58:38.968Z,11.67
2022-10-11T19:01:10.400Z,11.62
2022-10-11T19:03:37.209Z,11.60
2022-10-11T19:06:09.324Z,11.59
2022-10-11T19:08:35.909Z,11.57
2022-10-11T19:11:06.984Z,11.55
2022-10-11T19:13:34.790Z,11.52
2022-10-11T19:16:09.943Z,11.51
2022-10-11T19:18:41.733Z,11.47
2022-10-11T19:21:12.808Z,11.44
2022-10-11T19:23:42.203Z,11.42
2022-10-11T19:26:13.486Z,11.42
2022-10-11T19:28:39.944Z,11.38
2022-10-11T19:31:09.929Z,11.36
2022-10-11T19:33:36.515Z,11.34
2022-10-11T19:36:05.261Z,11.31
2022-10-11T19:38:35.666Z,11.29
2022-10-11T19:41:03.600Z,11.28
2022-10-11T19:43:30.417Z,11.27
2022-10-11T19:46:05.239Z,11.26
2022-10-11T19:48:31.937Z,11.23
2022-10-11T19:51:19.169Z,11.23
2022-10-11T19:53:46.110Z,11.21
2022-10-11T19:56:15.339Z,11.19
2022-10-11T19:58:42.197Z,11.14
2022-10-11T20:01:16.404Z,11.15
2022-10-11T20:03:44.578Z,11.11
2022-10-11T20:06:11.422Z,11.10
2022-10-11T20:08:38.091Z,11.08
2022-10-11T20:11:08.155Z,11.09
2022-10-11T20:13:36.154Z,11.10
2022-10-11T20:16:08.026Z,11.07
2022-10-11T20:18:34.548Z,11.08
2022-10-11T20:21:04.426Z,11.08
2022-10-11T20:23:31.600Z,11.09
2022-10-11T20:25:58.968Z,11.09
2022-10-11T20:28:27.102Z,11.10
2022-10-11T20:30:53.788Z,11.33
2022-10-11T20:33:20.938Z,11.39
2022-10-11T20:35:58.558Z,11.35
2022-10-11T20:38:24.941Z,11.29
2022-10-11T20:40:51.304Z,11.23
2022-10-11T20:43:17.730Z,11.18
2022-10-11T20:45:44.118Z,11.16
2022-10-11T20:48:10.485Z,11.12
2022-10-11T20:50:36.857Z,11.08
2022-10-11T20:53:03.201Z,11.06
2022-10-11T20:55:29.638Z,11.05
2022-10-11T20:57:56.543Z,11.03
2022-10-11T21:00:23.128Z,11.01
2022-10-11T21:02:51.103Z,11.00
2022-10-11T21:05:17.474Z,10.99
2022-10-11T21:07:44.441Z,10.96
2022-10-11T21:10:10.810Z,10.95
2022-10-11T21:12:37.248Z,10.95
2022-10-11T21:15:03.770Z,10.94
2022-10-11T21:17:30.145Z,10.94
2022-10-11T21:19:58.558Z,10.94
2022-10-11T21:22:24.916Z,10.94
2022-10-11T21:24:51.265Z,10.96
2022-10-11T21:27:17.697Z,10.98
2022-10-11T21:29:44.060Z,10.99
2022-10-11T21:32:14.280Z,11.00
2022-10-11T21:34:40.963Z,11.01
2022-10-11T21:37:07.377Z,11.02
2022-10-11T21:39:33.831Z,11.02
2022-10-11T21:42:00.230Z,11.02
2022-10-11T21:44:26.616Z,11.02
2022-10-11T21:47:08.193Z,11.04
2022-10-11T21:49:34.941Z,11.04
2022-10-11T21:52:01.522Z,11.03
2022-10-11T21:54:27.874Z,11.00
2022-10-11T21:56:54.370Z,10.98
2022-10-11T21:59:20.833Z,10.96
2022-10-11T22:01:47.220Z,10.94
2022-10-11T22:04:13.622Z,10.93
2022-10-11T22:06:40.145Z,10.89
2022-10-11T22:09:07.498Z,10.89
2022-10-11T22:11:34.127Z,10.86
2022-10-11T22:14:00.863Z,10.86
2022-10-11T22:16:27.275Z,10.85
2022-10-11T22:18:53.879Z,10.84
2022-10-11T22:21:23.061Z,10.80
2022-10-11T22:23:51.525Z,10.80
2022-10-11T22:26:20.866Z,10.78
2022-10-11T22:28:47.519Z,10.78
2022-10-11T22:31:15.238Z,10.76
2022-10-11T22:33:42.036Z,10.75
2022-10-11T22:36:10.214Z,10.74
2022-10-11T22:38:38.529Z,10.74
2022-10-11T22:41:05.025Z,10.73
2022-10-11T22:43:31.572Z,10.70
2022-10-11T22:45:57.946Z,10.71
2022-10-11T22:48:24.466Z,10.68
2022-10-11T22:50:51.280Z,10.67
2022-10-11T22:53:20.093Z,10.66
2022-10-11T22:55:47.119Z,10.63
2022-10-11T22:58:13.821Z,10.60
2022-10-11T23:00:40.179Z,10.56
2022-10-11T23:03:09.542Z,10.54
2022-10-11T23:05:35.971Z,10.54
2022-10-11T23:08:02.358Z,10.53
2022-10-11T23:10:28.967Z,10.51
2022-10-11T23:12:55.346Z,10.49
2022-10-11T23:15:21.751Z,10.46
2022-10-11T23:17:48.105Z,10.45
2022-10-11T23:20:14.681Z,10.40
2022-10-11T23:22:41.027Z,10.39
2022-10-11T23:25:08.161Z,10.35
2022-10-11T23:27:34.702Z,10.34
2022-10-11T23:30:01.166Z,10.31
2022-10-11T23:32:27.507Z,10.30
2022-10-11T23:34:53.873Z,10.29
2022-10-11T23:37:20.472Z,10.27
2022-10-11T23:39:46.847Z,10.26
2022-10-11T23:42:13.186Z,10.22
2022-10-11T23:44:39.551Z,10.21
2022-10-11T23:47:05.922Z,10.20
2022-10-11T23:49:32.376Z,10.21
2022-10-11T23:51:58.717Z,10.22
2022-10-11T23:54:25.069Z,10.17
2022-10-11T23:56:51.433Z,10.19
2022-10-11T23:59:17.770Z,10.16
